sensor_id;sensor_type;location;lat;lon;timestamp;P1;durP1;ratioP1;P2;durP2;ratioP2
39888;SDS011;25563;50.844;4.308;2024-02-23T00:00:31;3.27;;;0.53;;
39888;SDS011;25563;50.844;4.308;2024-02-23T00:02:57;4.15;;;0.80;;
39888;SDS011;25563;50.844;4.308;2024-02-23T00:05:23;3.80;;;0.60;;
39888;SDS011;25563;50.844;4.308;2024-02-23T00:07:49;5.10;;;0.93;;
39888;SDS011;25563;50.844;4.308;2024-02-23T00:10:16;3.17;;;0.90;;
39888;SDS011;25563;50.844;4.308;2024-02-23T00:12:42;2.63;;;0.85;;
39888;SDS011;25563;50.844;4.308;2024-02-23T00:15:09;5.72;;;1.83;;
39888;SDS011;25563;50.844;4.308;2024-02-23T00:17:35;3.55;;;0.90;;
39888;SDS011;25563;50.844;4.308;2024-02-23T00:20:01;2.55;;;0.65;;
39888;SDS011;25563;50.844;4.308;2024-02-23T00:22:27;7.20;;;1.00;;
39888;SDS011;25563;50.844;4.308;2024-02-23T00:24:53;5.78;;;0.80;;
39888;SDS011;25563;50.844;4.308;2024-02-23T00:27:21;2.33;;;0.47;;
39888;SDS011;25563;50.844;4.308;2024-02-23T00:29:48;1.77;;;0.63;;
39888;SDS011;25563;50.844;4.308;2024-02-23T00:32:14;1.48;;;0.65;;
39888;SDS011;25563;50.844;4.308;2024-02-23T00:34:39;1.42;;;0.50;;
39888;SDS011;25563;50.844;4.308;2024-02-23T00:37:05;8.65;;;1.08;;
39888;SDS011;25563;50.844;4.308;2024-02-23T00:39:33;2.58;;;0.77;;
39888;SDS011;25563;50.844;4.308;2024-02-23T00:42:00;3.03;;;0.65;;
39888;SDS011;25563;50.844;4.308;2024-02-23T00:44:25;5.57;;;0.75;;
39888;SDS011;25563;50.844;4.308;2024-02-23T00:46:51;8.93;;;1.17;;
39888;SDS011;25563;50.844;4.308;2024-02-23T00:49:17;5.43;;;1.00;;
39888;SDS011;25563;50.844;4.308;2024-02-23T00:51:43;2.42;;;0.50;;
39888;SDS011;25563;50.844;4.308;2024-02-23T00:54:09;6.05;;;1.00;;
39888;SDS011;25563;50.844;4.308;2024-02-23T00:56:36;4.03;;;0.70;;
39888;SDS011;25563;50.844;4.308;2024-02-23T00:59:02;8.52;;;0.68;;
39888;SDS011;25563;50.844;4.308;2024-02-23T01:01:28;5.22;;;1.60;;
39888;SDS011;25563;50.844;4.308;2024-02-23T01:03:54;2.40;;;0.73;;
39888;SDS011;25563;50.844;4.308;2024-02-23T01:06:20;2.47;;;0.60;;
39888;SDS011;25563;50.844;4.308;2024-02-23T01:08:46;5.63;;;1.13;;
39888;SDS011;25563;50.844;4.308;2024-02-23T01:11:12;3.35;;;0.98;;
39888;SDS011;25563;50.844;4.308;2024-02-23T01:13:38;5.07;;;0.80;;
39888;SDS011;25563;50.844;4.308;2024-02-23T01:16:04;3.40;;;0.98;;
39888;SDS011;25563;50.844;4.308;2024-02-23T01:18:30;4.95;;;0.93;;
39888;SDS011;25563;50.844;4.308;2024-02-23T01:20:56;8.23;;;2.20;;
39888;SDS011;25563;50.844;4.308;2024-02-23T01:23:22;3.58;;;0.50;;
39888;SDS011;25563;50.844;4.308;2024-02-23T01:25:48;2.97;;;0.50;;
39888;SDS011;25563;50.844;4.308;2024-02-23T01:28:15;2.67;;;0.60;;
39888;SDS011;25563;50.844;4.308;2024-02-23T01:30:44;9.27;;;1.50;;
39888;SDS011;25563;50.844;4.308;2024-02-23T01:33:11;4.95;;;0.88;;
39888;SDS011;25563;50.844;4.308;2024-02-23T01:35:37;2.17;;;0.50;;
39888;SDS011;25563;50.844;4.308;2024-02-23T01:38:06;3.95;;;0.65;;
39888;SDS011;25563;50.844;4.308;2024-02-23T01:40:32;1.60;;;0.70;;
39888;SDS011;25563;50.844;4.308;2024-02-23T01:43:04;5.05;;;0.60;;
39888;SDS011;25563;50.844;4.308;2024-02-23T01:45:32;4.07;;;0.80;;
39888;SDS011;25563;50.844;4.308;2024-02-23T01:47:59;3.67;;;0.73;;
39888;SDS011;25563;50.844;4.308;2024-02-23T01:50:26;5.78;;;1.13;;
39888;SDS011;25563;50.844;4.308;2024-02-23T01:52:54;10.93;;;1.88;;
39888;SDS011;25563;50.844;4.308;2024-02-23T01:55:24;2.55;;;0.75;;
39888;SDS011;25563;50.844;4.308;2024-02-23T01:57:53;4.45;;;0.95;;
39888;SDS011;25563;50.844;4.308;2024-02-23T02:00:20;8.07;;;1.77;;
39888;SDS011;25563;50.844;4.308;2024-02-23T02:02:47;6.18;;;0.88;;
39888;SDS011;25563;50.844;4.308;2024-02-23T02:05:13;3.60;;;0.75;;
39888;SDS011;25563;50.844;4.308;2024-02-23T02:07:40;5.50;;;0.80;;
39888;SDS011;25563;50.844;4.308;2024-02-23T02:10:08;5.72;;;1.00;;
39888;SDS011;25563;50.844;4.308;2024-02-23T02:12:36;4.55;;;1.15;;
39888;SDS011;25563;50.844;4.308;2024-02-23T02:15:02;7.15;;;0.98;;
39888;SDS011;25563;50.844;4.308;2024-02-23T02:17:28;11.05;;;0.90;;
39888;SDS011;25563;50.844;4.308;2024-02-23T02:19:54;4.43;;;1.10;;
39888;SDS011;25563;50.844;4.308;2024-02-23T02:22:20;5.95;;;1.30;;
39888;SDS011;25563;50.844;4.308;2024-02-23T02:24:45;5.22;;;1.00;;
39888;SDS011;25563;50.844;4.308;2024-02-23T02:27:13;5.32;;;1.25;;
39888;SDS011;25563;50.844;4.308;2024-02-23T02:29:41;9.63;;;2.22;;
39888;SDS011;25563;50.844;4.308;2024-02-23T02:32:09;7.05;;;1.20;;
39888;SDS011;25563;50.844;4.308;2024-02-23T02:34:35;4.97;;;1.20;;
39888;SDS011;25563;50.844;4.308;2024-02-23T02:37:00;6.32;;;1.23;;
39888;SDS011;25563;50.844;4.308;2024-02-23T02:39:27;9.93;;;1.23;;
39888;SDS011;25563;50.844;4.308;2024-02-23T02:41:54;10.50;;;1.35;;
39888;SDS011;25563;50.844;4.308;2024-02-23T02:44:21;5.70;;;1.65;;
39888;SDS011;25563;50.844;4.308;2024-02-23T02:46:46;6.40;;;1.10;;
39888;SDS011;25563;50.844;4.308;2024-02-23T02:49:12;2.63;;;0.90;;
39888;SDS011;25563;50.844;4.308;2024-02-23T02:51:38;7.03;;;1.83;;
39888;SDS011;25563;50.844;4.308;2024-02-23T02:54:05;8.63;;;1.30;;
39888;SDS011;25563;50.844;4.308;2024-02-23T02:56:32;12.60;;;2.10;;
39888;SDS011;25563;50.844;4.308;2024-02-23T02:58:58;7.35;;;1.95;;
39888;SDS011;25563;50.844;4.308;2024-02-23T03:01:25;7.35;;;1.35;;
39888;SDS011;25563;50.844;4.308;2024-02-23T03:03:51;9.68;;;0.90;;
39888;SDS011;25563;50.844;4.308;2024-02-23T03:06:17;5.05;;;1.15;;
39888;SDS011;25563;50.844;4.308;2024-02-23T03:08:43;7.85;;;1.60;;
39888;SDS011;25563;50.844;4.308;2024-02-23T03:11:10;6.03;;;1.58;;
39888;SDS011;25563;50.844;4.308;2024-02-23T03:13:37;7.20;;;1.45;;
39888;SDS011;25563;50.844;4.308;2024-02-23T03:16:03;7.90;;;0.93;;
39888;SDS011;25563;50.844;4.308;2024-02-23T03:18:29;8.90;;;1.85;;
39888;SDS011;25563;50.844;4.308;2024-02-23T03:20:55;6.47;;;1.23;;
39888;SDS011;25563;50.844;4.308;2024-02-23T03:23:20;10.63;;;1.33;;
39888;SDS011;25563;50.844;4.308;2024-02-23T03:25:48;6.35;;;1.20;;
39888;SDS011;25563;50.844;4.308;2024-02-23T03:28:13;7.25;;;1.02;;
39888;SDS011;25563;50.844;4.308;2024-02-23T03:30:39;9.00;;;1.20;;
39888;SDS011;25563;50.844;4.308;2024-02-23T03:33:05;6.00;;;1.00;;
39888;SDS011;25563;50.844;4.308;2024-02-23T03:35:31;4.38;;;1.20;;
39888;SDS011;25563;50.844;4.308;2024-02-23T03:37:57;6.53;;;1.13;;
39888;SDS011;25563;50.844;4.308;2024-02-23T03:40:23;6.40;;;1.10;;
39888;SDS011;25563;50.844;4.308;2024-02-23T03:42:49;5.13;;;0.82;;
39888;SDS011;25563;50.844;4.308;2024-02-23T03:45:16;8.55;;;2.20;;
39888;SDS011;25563;50.844;4.308;2024-02-23T03:47:42;8.43;;;1.50;;
39888;SDS011;25563;50.844;4.308;2024-02-23T03:50:08;9.77;;;0.98;;
39888;SDS011;25563;50.844;4.308;2024-02-23T03:52:34;6.88;;;1.10;;
39888;SDS011;25563;50.844;4.308;2024-02-23T03:55:00;11.50;;;1.83;;
39888;SDS011;25563;50.844;4.308;2024-02-23T03:57:26;9.65;;;1.23;;
39888;SDS011;25563;50.844;4.308;2024-02-23T03:59:55;6.93;;;1.70;;
39888;SDS011;25563;50.844;4.308;2024-02-23T04:02:23;7.45;;;1.23;;
39888;SDS011;25563;50.844;4.308;2024-02-23T04:04:49;8.77;;;1.55;;
39888;SDS011;25563;50.844;4.308;2024-02-23T04:07:16;9.18;;;1.60;;
39888;SDS011;25563;50.844;4.308;2024-02-23T04:09:42;5.53;;;1.30;;
39888;SDS011;25563;50.844;4.308;2024-02-23T04:12:08;14.43;;;1.70;;
39888;SDS011;25563;50.844;4.308;2024-02-23T04:14:35;3.88;;;1.15;;
39888;SDS011;25563;50.844;4.308;2024-02-23T04:17:02;5.75;;;1.52;;
39888;SDS011;25563;50.844;4.308;2024-02-23T04:19:30;9.77;;;1.40;;
39888;SDS011;25563;50.844;4.308;2024-02-23T04:21:57;6.68;;;1.50;;
39888;SDS011;25563;50.844;4.308;2024-02-23T04:24:23;7.43;;;1.88;;
39888;SDS011;25563;50.844;4.308;2024-02-23T04:26:49;11.85;;;2.03;;
39888;SDS011;25563;50.844;4.308;2024-02-23T04:29:15;10.50;;;1.38;;
39888;SDS011;25563;50.844;4.308;2024-02-23T04:31:41;7.57;;;1.23;;
39888;SDS011;25563;50.844;4.308;2024-02-23T04:34:07;8.30;;;1.30;;
39888;SDS011;25563;50.844;4.308;2024-02-23T04:36:34;11.05;;;1.63;;
39888;SDS011;25563;50.844;4.308;2024-02-23T04:39:00;7.03;;;1.90;;
39888;SDS011;25563;50.844;4.308;2024-02-23T04:41:26;16.15;;;1.80;;
39888;SDS011;25563;50.844;4.308;2024-02-23T04:43:53;10.73;;;1.48;;
39888;SDS011;25563;50.844;4.308;2024-02-23T04:46:26;8.25;;;1.55;;
39888;SDS011;25563;50.844;4.308;2024-02-23T04:48:52;4.65;;;0.77;;
39888;SDS011;25563;50.844;4.308;2024-02-23T04:51:18;9.35;;;2.33;;
39888;SDS011;25563;50.844;4.308;2024-02-23T04:53:44;4.70;;;1.20;;
39888;SDS011;25563;50.844;4.308;2024-02-23T04:56:09;3.85;;;1.00;;
39888;SDS011;25563;50.844;4.308;2024-02-23T04:58:35;8.38;;;1.10;;
39888;SDS011;25563;50.844;4.308;2024-02-23T05:01:10;4.82;;;1.75;;
39888;SDS011;25563;50.844;4.308;2024-02-23T05:03:36;12.25;;;1.63;;
39888;SDS011;25563;50.844;4.308;2024-02-23T05:06:06;8.07;;;1.50;;
39888;SDS011;25563;50.844;4.308;2024-02-23T05:08:33;11.38;;;2.38;;
39888;SDS011;25563;50.844;4.308;2024-02-23T05:10:59;13.43;;;2.60;;
39888;SDS011;25563;50.844;4.308;2024-02-23T05:13:25;12.82;;;3.00;;
39888;SDS011;25563;50.844;4.308;2024-02-23T05:15:51;10.23;;;2.92;;
39888;SDS011;25563;50.844;4.308;2024-02-23T05:18:17;8.02;;;2.50;;
39888;SDS011;25563;50.844;4.308;2024-02-23T05:20:42;12.93;;;1.88;;
39888;SDS011;25563;50.844;4.308;2024-02-23T05:23:08;7.03;;;2.00;;
39888;SDS011;25563;50.844;4.308;2024-02-23T05:25:34;8.38;;;1.58;;
39888;SDS011;25563;50.844;4.308;2024-02-23T05:28:00;8.95;;;1.50;;
39888;SDS011;25563;50.844;4.308;2024-02-23T05:30:27;5.90;;;1.75;;
39888;SDS011;25563;50.844;4.308;2024-02-23T05:35:23;5.90;;;1.55;;
39888;SDS011;25563;50.844;4.308;2024-02-23T05:37:50;6.20;;;1.75;;
39888;SDS011;25563;50.844;4.308;2024-02-23T05:40:16;6.00;;;1.75;;
39888;SDS011;25563;50.844;4.308;2024-02-23T05:42:41;8.48;;;1.60;;
39888;SDS011;25563;50.844;4.308;2024-02-23T05:45:07;7.10;;;2.10;;
39888;SDS011;25563;50.844;4.308;2024-02-23T05:47:37;3.88;;;1.40;;
39888;SDS011;25563;50.844;4.308;2024-02-23T05:50:04;10.25;;;2.13;;
39888;SDS011;25563;50.844;4.308;2024-02-23T05:52:33;5.00;;;1.50;;
39888;SDS011;25563;50.844;4.308;2024-02-23T05:54:59;10.13;;;2.27;;
39888;SDS011;25563;50.844;4.308;2024-02-23T05:57:28;11.77;;;1.70;;
39888;SDS011;25563;50.844;4.308;2024-02-23T05:59:55;8.18;;;1.63;;
39888;SDS011;25563;50.844;4.308;2024-02-23T06:02:21;9.07;;;1.45;;
39888;SDS011;25563;50.844;4.308;2024-02-23T06:04:47;6.93;;;2.22;;
39888;SDS011;25563;50.844;4.308;2024-02-23T06:07:13;8.35;;;2.05;;
39888;SDS011;25563;50.844;4.308;2024-02-23T06:09:45;6.30;;;1.50;;
39888;SDS011;25563;50.844;4.308;2024-02-23T06:12:10;8.70;;;1.85;;
39888;SDS011;25563;50.844;4.308;2024-02-23T06:14:36;9.32;;;1.80;;
39888;SDS011;25563;50.844;4.308;2024-02-23T06:17:02;8.15;;;2.17;;
39888;SDS011;25563;50.844;4.308;2024-02-23T06:19:28;8.85;;;1.40;;
39888;SDS011;25563;50.844;4.308;2024-02-23T06:21:54;9.60;;;1.48;;
39888;SDS011;25563;50.844;4.308;2024-02-23T06:24:20;7.30;;;1.65;;
39888;SDS011;25563;50.844;4.308;2024-02-23T06:26:46;10.00;;;2.00;;
39888;SDS011;25563;50.844;4.308;2024-02-23T06:29:14;5.50;;;1.50;;
39888;SDS011;25563;50.844;4.308;2024-02-23T06:31:39;13.07;;;1.52;;
39888;SDS011;25563;50.844;4.308;2024-02-23T06:34:06;15.23;;;2.40;;
39888;SDS011;25563;50.844;4.308;2024-02-23T06:36:33;12.40;;;1.80;;
39888;SDS011;25563;50.844;4.308;2024-02-23T06:39:00;6.22;;;1.58;;
39888;SDS011;25563;50.844;4.308;2024-02-23T06:41:26;10.00;;;2.45;;
39888;SDS011;25563;50.844;4.308;2024-02-23T06:43:54;6.18;;;1.50;;
39888;SDS011;25563;50.844;4.308;2024-02-23T06:46:20;9.85;;;1.90;;
39888;SDS011;25563;50.844;4.308;2024-02-23T06:48:46;11.02;;;1.42;;
39888;SDS011;25563;50.844;4.308;2024-02-23T06:51:12;10.85;;;1.70;;
39888;SDS011;25563;50.844;4.308;2024-02-23T06:53:38;13.40;;;1.77;;
39888;SDS011;25563;50.844;4.308;2024-02-23T06:56:05;19.60;;;1.98;;
39888;SDS011;25563;50.844;4.308;2024-02-23T06:58:31;7.72;;;1.90;;
39888;SDS011;25563;50.844;4.308;2024-02-23T07:00:57;14.38;;;3.35;;
39888;SDS011;25563;50.844;4.308;2024-02-23T07:03:23;12.35;;;1.95;;
39888;SDS011;25563;50.844;4.308;2024-02-23T07:05:49;11.68;;;1.70;;
39888;SDS011;25563;50.844;4.308;2024-02-23T07:08:15;16.05;;;2.63;;
39888;SDS011;25563;50.844;4.308;2024-02-23T07:10:41;14.82;;;2.70;;
39888;SDS011;25563;50.844;4.308;2024-02-23T07:13:07;5.43;;;1.58;;
39888;SDS011;25563;50.844;4.308;2024-02-23T07:15:33;9.30;;;1.80;;
39888;SDS011;25563;50.844;4.308;2024-02-23T07:18:00;10.98;;;1.92;;
39888;SDS011;25563;50.844;4.308;2024-02-23T07:20:26;8.38;;;2.00;;
39888;SDS011;25563;50.844;4.308;2024-02-23T07:22:52;8.20;;;2.13;;
39888;SDS011;25563;50.844;4.308;2024-02-23T07:25:18;13.18;;;1.77;;
39888;SDS011;25563;50.844;4.308;2024-02-23T07:27:48;11.80;;;1.90;;
39888;SDS011;25563;50.844;4.308;2024-02-23T07:30:14;10.20;;;1.67;;
39888;SDS011;25563;50.844;4.308;2024-02-23T07:32:42;6.43;;;2.05;;
39888;SDS011;25563;50.844;4.308;2024-02-23T07:35:09;16.33;;;2.28;;
39888;SDS011;25563;50.844;4.308;2024-02-23T07:37:36;8.73;;;1.40;;
39888;SDS011;25563;50.844;4.308;2024-02-23T07:40:03;9.50;;;1.70;;
39888;SDS011;25563;50.844;4.308;2024-02-23T07:42:34;6.63;;;1.70;;
39888;SDS011;25563;50.844;4.308;2024-02-23T07:45:03;6.55;;;1.95;;
39888;SDS011;25563;50.844;4.308;2024-02-23T07:47:29;13.25;;;2.15;;
39888;SDS011;25563;50.844;4.308;2024-02-23T07:49:59;11.57;;;1.70;;
39888;SDS011;25563;50.844;4.308;2024-02-23T07:52:25;18.70;;;2.40;;
39888;SDS011;25563;50.844;4.308;2024-02-23T07:54:54;7.05;;;1.92;;
39888;SDS011;25563;50.844;4.308;2024-02-23T07:57:19;9.47;;;2.27;;
39888;SDS011;25563;50.844;4.308;2024-02-23T07:59:45;7.30;;;2.22;;
39888;SDS011;25563;50.844;4.308;2024-02-23T08:02:14;7.55;;;1.90;;
39888;SDS011;25563;50.844;4.308;2024-02-23T08:04:40;9.93;;;2.75;;
39888;SDS011;25563;50.844;4.308;2024-02-23T08:07:07;8.63;;;1.33;;
39888;SDS011;25563;50.844;4.308;2024-02-23T08:09:33;9.40;;;1.60;;
39888;SDS011;25563;50.844;4.308;2024-02-23T08:11:59;8.85;;;1.33;;
39888;SDS011;25563;50.844;4.308;2024-02-23T08:14:25;12.25;;;2.08;;
39888;SDS011;25563;50.844;4.308;2024-02-23T08:16:50;8.57;;;1.38;;
39888;SDS011;25563;50.844;4.308;2024-02-23T08:19:16;10.98;;;1.60;;
39888;SDS011;25563;50.844;4.308;2024-02-23T08:21:42;10.80;;;1.67;;
39888;SDS011;25563;50.844;4.308;2024-02-23T08:24:09;13.50;;;2.28;;
39888;SDS011;25563;50.844;4.308;2024-02-23T08:26:34;9.70;;;2.47;;
39888;SDS011;25563;50.844;4.308;2024-02-23T08:29:03;10.77;;;1.98;;
39888;SDS011;25563;50.844;4.308;2024-02-23T08:31:29;8.68;;;1.80;;
39888;SDS011;25563;50.844;4.308;2024-02-23T08:33:55;18.13;;;2.35;;
39888;SDS011;25563;50.844;4.308;2024-02-23T08:36:21;10.75;;;1.67;;
39888;SDS011;25563;50.844;4.308;2024-02-23T08:38:47;10.90;;;1.73;;
39888;SDS011;25563;50.844;4.308;2024-02-23T08:41:13;13.75;;;1.92;;
39888;SDS011;25563;50.844;4.308;2024-02-23T08:43:38;6.68;;;1.27;;
39888;SDS011;25563;50.844;4.308;2024-02-23T08:46:04;10.65;;;1.90;;
39888;SDS011;25563;50.844;4.308;2024-02-23T08:48:30;7.63;;;2.00;;
39888;SDS011;25563;50.844;4.308;2024-02-23T08:50:56;12.30;;;1.88;;
39888;SDS011;25563;50.844;4.308;2024-02-23T08:53:21;13.70;;;1.88;;
39888;SDS011;25563;50.844;4.308;2024-02-23T08:55:47;7.43;;;1.85;;
39888;SDS011;25563;50.844;4.308;2024-02-23T08:58:13;10.50;;;2.72;;
39888;SDS011;25563;50.844;4.308;2024-02-23T09:00:39;10.95;;;2.13;;
39888;SDS011;25563;50.844;4.308;2024-02-23T09:03:04;7.93;;;1.92;;
39888;SDS011;25563;50.844;4.308;2024-02-23T09:05:32;17.23;;;2.63;;
39888;SDS011;25563;50.844;4.308;2024-02-23T09:07:58;12.13;;;3.95;;
39888;SDS011;25563;50.844;4.308;2024-02-23T09:10:23;5.38;;;1.60;;
39888;SDS011;25563;50.844;4.308;2024-02-23T09:12:49;17.52;;;2.17;;
39888;SDS011;25563;50.844;4.308;2024-02-23T09:15:15;9.88;;;1.88;;
39888;SDS011;25563;50.844;4.308;2024-02-23T09:17:41;12.18;;;1.90;;
39888;SDS011;25563;50.844;4.308;2024-02-23T09:20:07;10.00;;;2.08;;
39888;SDS011;25563;50.844;4.308;2024-02-23T09:22:33;12.30;;;2.42;;
39888;SDS011;25563;50.844;4.308;2024-02-23T09:25:00;10.00;;;1.90;;
39888;SDS011;25563;50.844;4.308;2024-02-23T09:27:27;20.77;;;2.80;;
39888;SDS011;25563;50.844;4.308;2024-02-23T09:29:53;11.95;;;2.25;;
39888;SDS011;25563;50.844;4.308;2024-02-23T09:32:19;11.07;;;2.35;;
39888;SDS011;25563;50.844;4.308;2024-02-23T09:34:44;6.03;;;1.80;;
39888;SDS011;25563;50.844;4.308;2024-02-23T09:37:10;11.95;;;2.80;;
39888;SDS011;25563;50.844;4.308;2024-02-23T09:39:36;13.20;;;3.15;;
39888;SDS011;25563;50.844;4.308;2024-02-23T09:42:02;7.22;;;2.00;;
39888;SDS011;25563;50.844;4.308;2024-02-23T09:44:32;7.40;;;2.05;;
39888;SDS011;25563;50.844;4.308;2024-02-23T09:47:03;8.98;;;2.83;;
39888;SDS011;25563;50.844;4.308;2024-02-23T09:49:40;20.67;;;3.28;;
39888;SDS011;25563;50.844;4.308;2024-02-23T09:52:09;20.20;;;4.07;;
39888;SDS011;25563;50.844;4.308;2024-02-23T09:54:38;22.40;;;3.63;;
39888;SDS011;25563;50.844;4.308;2024-02-23T09:57:06;19.58;;;5.85;;
39888;SDS011;25563;50.844;4.308;2024-02-23T09:59:34;12.30;;;3.30;;
39888;SDS011;25563;50.844;4.308;2024-02-23T10:02:01;11.00;;;2.72;;
39888;SDS011;25563;50.844;4.308;2024-02-23T10:04:31;14.40;;;2.15;;
39888;SDS011;25563;50.844;4.308;2024-02-23T10:06:57;7.18;;;1.90;;
39888;SDS011;25563;50.844;4.308;2024-02-23T10:09:23;12.73;;;1.80;;
39888;SDS011;25563;50.844;4.308;2024-02-23T10:11:53;8.15;;;1.35;;
39888;SDS011;25563;50.844;4.308;2024-02-23T10:16:46;3.58;;;0.93;;
39888;SDS011;25563;50.844;4.308;2024-02-23T10:19:12;4.45;;;1.40;;
39888;SDS011;25563;50.844;4.308;2024-02-23T10:21:37;12.82;;;1.35;;
39888;SDS011;25563;50.844;4.308;2024-02-23T10:24:04;9.05;;;1.60;;
39888;SDS011;25563;50.844;4.308;2024-02-23T10:26:31;8.38;;;1.30;;
39888;SDS011;25563;50.844;4.308;2024-02-23T10:28:57;5.47;;;1.52;;
39888;SDS011;25563;50.844;4.308;2024-02-23T10:31:24;6.93;;;1.90;;
39888;SDS011;25563;50.844;4.308;2024-02-23T10:33:50;5.82;;;1.85;;
39888;SDS011;25563;50.844;4.308;2024-02-23T10:36:17;8.07;;;2.05;;
39888;SDS011;25563;50.844;4.308;2024-02-23T10:38:47;6.55;;;1.65;;
39888;SDS011;25563;50.844;4.308;2024-02-23T10:41:15;10.40;;;3.05;;
39888;SDS011;25563;50.844;4.308;2024-02-23T10:43:47;7.05;;;2.05;;
39888;SDS011;25563;50.844;4.308;2024-02-23T10:46:14;11.18;;;1.77;;
39888;SDS011;25563;50.844;4.308;2024-02-23T10:48:43;6.32;;;1.92;;
39888;SDS011;25563;50.844;4.308;2024-02-23T10:53:39;7.70;;;1.88;;
39888;SDS011;25563;50.844;4.308;2024-02-23T10:56:05;4.95;;;1.90;;
39888;SDS011;25563;50.844;4.308;2024-02-23T10:58:32;12.40;;;1.83;;
39888;SDS011;25563;50.844;4.308;2024-02-23T11:00:59;7.43;;;1.77;;
39888;SDS011;25563;50.844;4.308;2024-02-23T11:03:30;47.97;;;2.45;;
39888;SDS011;25563;50.844;4.308;2024-02-23T11:05:59;7.43;;;1.55;;
39888;SDS011;25563;50.844;4.308;2024-02-23T11:08:27;10.85;;;2.72;;
39888;SDS011;25563;50.844;4.308;2024-02-23T11:10:53;17.30;;;2.70;;
39888;SDS011;25563;50.844;4.308;2024-02-23T11:13:35;4.88;;;2.05;;
39888;SDS011;25563;50.844;4.308;2024-02-23T11:16:07;5.85;;;2.40;;
39888;SDS011;25563;50.844;4.308;2024-02-23T11:18:37;10.82;;;3.63;;
39888;SDS011;25563;50.844;4.308;2024-02-23T11:21:05;8.35;;;2.28;;
39888;SDS011;25563;50.844;4.308;2024-02-23T11:23:43;9.48;;;2.42;;
39888;SDS011;25563;50.844;4.308;2024-02-23T11:26:13;10.93;;;2.53;;
39888;SDS011;25563;50.844;4.308;2024-02-23T11:31:22;18.27;;;2.45;;
39888;SDS011;25563;50.844;4.308;2024-02-23T11:33:50;8.30;;;1.83;;
39888;SDS011;25563;50.844;4.308;2024-02-23T11:38:58;9.77;;;1.90;;
39888;SDS011;25563;50.844;4.308;2024-02-23T11:41:26;12.43;;;2.25;;
39888;SDS011;25563;50.844;4.308;2024-02-23T11:43:53;9.85;;;1.70;;
39888;SDS011;25563;50.844;4.308;2024-02-23T11:46:23;4.65;;;1.75;;
39888;SDS011;25563;50.844;4.308;2024-02-23T11:48:49;9.02;;;1.58;;
39888;SDS011;25563;50.844;4.308;2024-02-23T11:51:19;2.97;;;0.90;;
39888;SDS011;25563;50.844;4.308;2024-02-23T11:53:46;6.72;;;1.30;;
39888;SDS011;25563;50.844;4.308;2024-02-23T11:56:13;5.68;;;0.88;;
39888;SDS011;25563;50.844;4.308;2024-02-23T11:58:39;5.18;;;1.63;;
39888;SDS011;25563;50.844;4.308;2024-02-23T12:01:05;3.20;;;0.90;;
39888;SDS011;25563;50.844;4.308;2024-02-23T12:03:33;3.72;;;1.17;;
39888;SDS011;25563;50.844;4.308;2024-02-23T12:06:00;7.13;;;0.82;;
39888;SDS011;25563;50.844;4.308;2024-02-23T12:08:27;5.10;;;1.38;;
39888;SDS011;25563;50.844;4.308;2024-02-23T12:10:54;6.70;;;1.20;;
39888;SDS011;25563;50.844;4.308;2024-02-23T12:13:21;7.72;;;1.02;;
39888;SDS011;25563;50.844;4.308;2024-02-23T12:15:47;5.60;;;1.40;;
39888;SDS011;25563;50.844;4.308;2024-02-23T12:18:17;5.40;;;1.85;;
39888;SDS011;25563;50.844;4.308;2024-02-23T12:20:47;5.35;;;1.52;;
39888;SDS011;25563;50.844;4.308;2024-02-23T12:23:14;7.38;;;1.42;;
39888;SDS011;25563;50.844;4.308;2024-02-23T12:25:41;10.00;;;1.33;;
39888;SDS011;25563;50.844;4.308;2024-02-23T12:28:18;11.85;;;2.65;;
39888;SDS011;25563;50.844;4.308;2024-02-23T12:30:44;9.48;;;1.30;;
39888;SDS011;25563;50.844;4.308;2024-02-23T12:33:12;4.97;;;1.08;;
39888;SDS011;25563;50.844;4.308;2024-02-23T12:35:41;6.68;;;1.08;;
39888;SDS011;25563;50.844;4.308;2024-02-23T12:38:06;10.05;;;1.27;;
39888;SDS011;25563;50.844;4.308;2024-02-23T12:40:32;6.55;;;1.27;;
39888;SDS011;25563;50.844;4.308;2024-02-23T12:42:58;7.18;;;1.10;;
39888;SDS011;25563;50.844;4.308;2024-02-23T12:45:24;5.60;;;1.13;;
39888;SDS011;25563;50.844;4.308;2024-02-23T12:47:50;8.27;;;1.50;;
39888;SDS011;25563;50.844;4.308;2024-02-23T12:50:15;4.82;;;1.42;;
39888;SDS011;25563;50.844;4.308;2024-02-23T12:52:41;7.30;;;2.78;;
39888;SDS011;25563;50.844;4.308;2024-02-23T12:55:08;12.30;;;3.38;;
39888;SDS011;25563;50.844;4.308;2024-02-23T12:57:38;6.82;;;3.30;;
39888;SDS011;25563;50.844;4.308;2024-02-23T13:00:09;6.82;;;2.40;;
39888;SDS011;25563;50.844;4.308;2024-02-23T13:02:39;9.65;;;2.88;;
39888;SDS011;25563;50.844;4.308;2024-02-23T13:05:07;8.63;;;2.85;;
39888;SDS011;25563;50.844;4.308;2024-02-23T13:07:41;14.40;;;3.20;;
39888;SDS011;25563;50.844;4.308;2024-02-23T13:10:11;11.55;;;2.80;;
39888;SDS011;25563;50.844;4.308;2024-02-23T13:12:37;9.05;;;2.60;;
39888;SDS011;25563;50.844;4.308;2024-02-23T13:15:02;7.10;;;4.53;;
39888;SDS011;25563;50.844;4.308;2024-02-23T13:17:28;9.27;;;2.80;;
39888;SDS011;25563;50.844;4.308;2024-02-23T13:19:57;5.55;;;2.05;;
39888;SDS011;25563;50.844;4.308;2024-02-23T13:22:32;6.35;;;2.33;;
39888;SDS011;25563;50.844;4.308;2024-02-23T13:25:00;14.35;;;3.15;;
39888;SDS011;25563;50.844;4.308;2024-02-23T13:27:29;10.57;;;2.78;;
39888;SDS011;25563;50.844;4.308;2024-02-23T13:29:55;13.60;;;2.58;;
39888;SDS011;25563;50.844;4.308;2024-02-23T13:32:24;11.75;;;2.50;;
39888;SDS011;25563;50.844;4.308;2024-02-23T13:34:50;12.00;;;2.85;;
39888;SDS011;25563;50.844;4.308;2024-02-23T13:37:28;12.68;;;3.42;;
39888;SDS011;25563;50.844;4.308;2024-02-23T13:39:54;8.27;;;3.63;;
39888;SDS011;25563;50.844;4.308;2024-02-23T13:42:20;4.78;;;2.83;;
39888;SDS011;25563;50.844;4.308;2024-02-23T13:44:46;9.40;;;2.88;;
39888;SDS011;25563;50.844;4.308;2024-02-23T13:47:12;7.40;;;3.40;;
39888;SDS011;25563;50.844;4.308;2024-02-23T13:49:38;7.78;;;2.30;;
39888;SDS011;25563;50.844;4.308;2024-02-23T13:52:05;6.63;;;1.90;;
39888;SDS011;25563;50.844;4.308;2024-02-23T13:54:31;10.27;;;2.42;;
39888;SDS011;25563;50.844;4.308;2024-02-23T13:56:57;11.68;;;3.17;;
39888;SDS011;25563;50.844;4.308;2024-02-23T13:59:24;7.90;;;2.00;;
39888;SDS011;25563;50.844;4.308;2024-02-23T14:01:49;10.43;;;2.05;;
39888;SDS011;25563;50.844;4.308;2024-02-23T14:04:15;5.55;;;2.20;;
39888;SDS011;25563;50.844;4.308;2024-02-23T14:06:42;7.43;;;2.60;;
39888;SDS011;25563;50.844;4.308;2024-02-23T14:09:08;8.90;;;2.00;;
39888;SDS011;25563;50.844;4.308;2024-02-23T14:11:35;3.58;;;1.70;;
39888;SDS011;25563;50.844;4.308;2024-02-23T14:14:02;7.80;;;2.10;;
39888;SDS011;25563;50.844;4.308;2024-02-23T14:16:29;4.45;;;1.75;;
39888;SDS011;25563;50.844;4.308;2024-02-23T14:18:57;6.97;;;2.00;;
39888;SDS011;25563;50.844;4.308;2024-02-23T14:21:23;4.95;;;1.30;;
39888;SDS011;25563;50.844;4.308;2024-02-23T14:23:50;6.05;;;1.60;;
39888;SDS011;25563;50.844;4.308;2024-02-23T14:26:16;4.07;;;1.98;;
39888;SDS011;25563;50.844;4.308;2024-02-23T14:28:42;5.68;;;1.98;;
39888;SDS011;25563;50.844;4.308;2024-02-23T14:31:08;5.82;;;1.70;;
39888;SDS011;25563;50.844;4.308;2024-02-23T14:33:36;7.97;;;1.90;;
39888;SDS011;25563;50.844;4.308;2024-02-23T14:36:01;6.45;;;2.60;;
39888;SDS011;25563;50.844;4.308;2024-02-23T14:38:28;5.78;;;2.58;;
39888;SDS011;25563;50.844;4.308;2024-02-23T14:40:53;3.30;;;1.65;;
39888;SDS011;25563;50.844;4.308;2024-02-23T14:43:19;4.13;;;1.25;;
39888;SDS011;25563;50.844;4.308;2024-02-23T14:45:47;5.18;;;1.85;;
39888;SDS011;25563;50.844;4.308;2024-02-23T14:48:13;6.47;;;1.70;;
39888;SDS011;25563;50.844;4.308;2024-02-23T14:50:39;6.50;;;1.60;;
39888;SDS011;25563;50.844;4.308;2024-02-23T14:53:04;8.50;;;2.47;;